DXNG

Niamtougou International Airport

Niamtougou, Togo
METAR DXNG 180800Z 08005KT 6000 NSC 26/01 Q1015 NOSIG
Observed Flight Rules
Dec-18 @ 08:00 UTC (47 minutes ago) Marginal Visual Flight Rules
Wind Visibility Clouds
80° at 5 knots 6,003 meters
  • Clear skies
Temperatures Readings
Current 26°C / 79°F
Dewpoint 1°C / 34°F
Humidity 20%
Altimeter 29.97" Hg
Pressure 1015 hPa
Elevation 343
METAR DXNG 180800Z 08005KT 6000 NSC 26/01 Q1015 NOSIG
Observed Flight Rules
Dec-18 @ 08:00 UTC
(47 minutes ago)
MVFR
Wind Visibility
80° at 5 knots 6,003 meters
Clouds
  • Clear skies
Temperature Dewpoint
26°C / 79°F 1°C / 34°F
Humidity Altimeter Pressure
20% 29.97" Hg 1015 hPa